sensor_id;sensor_type;location;lat;lon;timestamp;P1;durP1;ratioP1;P2;durP2;ratioP2
33074;SDS011;19433;51.292;6.868;2023-06-14T00:01:35;4.20;;;3.90;;
33074;SDS011;19433;51.292;6.868;2023-06-14T00:04:00;4.63;;;4.23;;
33074;SDS011;19433;51.292;6.868;2023-06-14T00:06:28;4.97;;;4.57;;
33074;SDS011;19433;51.292;6.868;2023-06-14T00:08:53;3.47;;;3.23;;
33074;SDS011;19433;51.292;6.868;2023-06-14T00:11:19;5.50;;;5.00;;
33074;SDS011;19433;51.292;6.868;2023-06-14T00:13:44;5.67;;;4.40;;
33074;SDS011;19433;51.292;6.868;2023-06-14T00:16:10;5.60;;;4.67;;
33074;SDS011;19433;51.292;6.868;2023-06-14T00:18:36;4.80;;;4.40;;
33074;SDS011;19433;51.292;6.868;2023-06-14T00:21:01;4.23;;;3.93;;
33074;SDS011;19433;51.292;6.868;2023-06-14T00:23:27;5.07;;;4.67;;
33074;SDS011;19433;51.292;6.868;2023-06-14T00:25:52;4.60;;;3.70;;
33074;SDS011;19433;51.292;6.868;2023-06-14T00:28:17;4.63;;;4.33;;
33074;SDS011;19433;51.292;6.868;2023-06-14T00:30:43;4.73;;;4.33;;
33074;SDS011;19433;51.292;6.868;2023-06-14T00:33:11;4.53;;;4.13;;
33074;SDS011;19433;51.292;6.868;2023-06-14T00:35:36;5.23;;;4.83;;
33074;SDS011;19433;51.292;6.868;2023-06-14T00:38:01;4.73;;;4.33;;
33074;SDS011;19433;51.292;6.868;2023-06-14T00:40:27;4.60;;;4.27;;
33074;SDS011;19433;51.292;6.868;2023-06-14T00:42:52;4.73;;;4.33;;
33074;SDS011;19433;51.292;6.868;2023-06-14T00:45:17;4.70;;;4.30;;
33074;SDS011;19433;51.292;6.868;2023-06-14T00:47:43;5.07;;;4.67;;
33074;SDS011;19433;51.292;6.868;2023-06-14T00:50:11;5.57;;;4.87;;
33074;SDS011;19433;51.292;6.868;2023-06-14T00:52:38;4.70;;;4.23;;
33074;SDS011;19433;51.292;6.868;2023-06-14T00:55:04;5.17;;;4.77;;
33074;SDS011;19433;51.292;6.868;2023-06-14T00:57:30;4.90;;;4.40;;
33074;SDS011;19433;51.292;6.868;2023-06-14T00:59:55;5.07;;;4.67;;
33074;SDS011;19433;51.292;6.868;2023-06-14T01:02:21;5.40;;;4.90;;
33074;SDS011;19433;51.292;6.868;2023-06-14T01:04:48;4.90;;;4.10;;
33074;SDS011;19433;51.292;6.868;2023-06-14T01:13:21;5.00;;;4.60;;
33074;SDS011;19433;51.292;6.868;2023-06-14T01:15:58;5.60;;;5.10;;
33074;SDS011;19433;51.292;6.868;2023-06-14T01:18:24;4.87;;;4.47;;
33074;SDS011;19433;51.292;6.868;2023-06-14T01:20:51;5.10;;;4.53;;
33074;SDS011;19433;51.292;6.868;2023-06-14T01:23:20;4.70;;;4.30;;
33074;SDS011;19433;51.292;6.868;2023-06-14T01:25:46;5.20;;;4.80;;
33074;SDS011;19433;51.292;6.868;2023-06-14T01:28:13;5.50;;;5.00;;
33074;SDS011;19433;51.292;6.868;2023-06-14T01:30:41;5.17;;;4.67;;
33074;SDS011;19433;51.292;6.868;2023-06-14T01:33:10;4.60;;;4.20;;
33074;SDS011;19433;51.292;6.868;2023-06-14T01:35:38;4.70;;;4.30;;
33074;SDS011;19433;51.292;6.868;2023-06-14T01:38:04;4.90;;;4.40;;
33074;SDS011;19433;51.292;6.868;2023-06-14T01:40:31;4.33;;;4.03;;
33074;SDS011;19433;51.292;6.868;2023-06-14T01:42:59;4.67;;;4.13;;
33074;SDS011;19433;51.292;6.868;2023-06-14T01:45:26;5.60;;;4.83;;
33074;SDS011;19433;51.292;6.868;2023-06-14T01:47:52;4.70;;;4.30;;
33074;SDS011;19433;51.292;6.868;2023-06-14T01:50:18;4.00;;;3.70;;
33074;SDS011;19433;51.292;6.868;2023-06-14T01:52:45;5.17;;;4.43;;
33074;SDS011;19433;51.292;6.868;2023-06-14T01:55:11;5.00;;;4.60;;
33074;SDS011;19433;51.292;6.868;2023-06-14T01:57:36;4.43;;;4.10;;
33074;SDS011;19433;51.292;6.868;2023-06-14T02:00:02;5.23;;;4.30;;
33074;SDS011;19433;51.292;6.868;2023-06-14T02:02:28;4.80;;;4.40;;
33074;SDS011;19433;51.292;6.868;2023-06-14T02:04:54;5.13;;;4.70;;
33074;SDS011;19433;51.292;6.868;2023-06-14T02:07:22;5.47;;;5.07;;
33074;SDS011;19433;51.292;6.868;2023-06-14T02:09:47;5.33;;;4.83;;
33074;SDS011;19433;51.292;6.868;2023-06-14T02:12:12;4.30;;;3.83;;
33074;SDS011;19433;51.292;6.868;2023-06-14T02:14:38;5.20;;;4.70;;
33074;SDS011;19433;51.292;6.868;2023-06-14T02:17:03;5.07;;;3.90;;
33074;SDS011;19433;51.292;6.868;2023-06-14T02:19:29;5.30;;;4.90;;
33074;SDS011;19433;51.292;6.868;2023-06-14T02:21:54;5.10;;;4.70;;
33074;SDS011;19433;51.292;6.868;2023-06-14T02:24:19;4.80;;;4.30;;
33074;SDS011;19433;51.292;6.868;2023-06-14T02:26:45;5.30;;;4.77;;
33074;SDS011;19433;51.292;6.868;2023-06-14T02:29:10;5.13;;;4.73;;
33074;SDS011;19433;51.292;6.868;2023-06-14T02:31:37;4.97;;;4.63;;
33074;SDS011;19433;51.292;6.868;2023-06-14T02:34:03;5.40;;;4.90;;
33074;SDS011;19433;51.292;6.868;2023-06-14T02:36:28;4.27;;;3.97;;
33074;SDS011;19433;51.292;6.868;2023-06-14T02:38:57;5.00;;;4.60;;
33074;SDS011;19433;51.292;6.868;2023-06-14T02:41:23;5.07;;;4.67;;
33074;SDS011;19433;51.292;6.868;2023-06-14T02:43:49;4.40;;;3.93;;
33074;SDS011;19433;51.292;6.868;2023-06-14T02:46:14;4.90;;;3.77;;
33074;SDS011;19433;51.292;6.868;2023-06-14T02:48:40;5.40;;;4.90;;
33074;SDS011;19433;51.292;6.868;2023-06-14T02:51:06;4.40;;;4.10;;
33074;SDS011;19433;51.292;6.868;2023-06-14T02:53:33;4.20;;;3.90;;
33074;SDS011;19433;51.292;6.868;2023-06-14T02:55:58;6.73;;;4.80;;
33074;SDS011;19433;51.292;6.868;2023-06-14T02:58:24;4.10;;;3.77;;
33074;SDS011;19433;51.292;6.868;2023-06-14T03:00:50;5.10;;;4.70;;
33074;SDS011;19433;51.292;6.868;2023-06-14T03:03:17;4.90;;;4.50;;
33074;SDS011;19433;51.292;6.868;2023-06-14T03:05:44;4.87;;;4.47;;
33074;SDS011;19433;51.292;6.868;2023-06-14T03:08:14;5.33;;;3.77;;
33074;SDS011;19433;51.292;6.868;2023-06-14T03:10:51;5.10;;;4.70;;
33074;SDS011;19433;51.292;6.868;2023-06-14T03:13:16;4.40;;;4.10;;
33074;SDS011;19433;51.292;6.868;2023-06-14T03:15:42;5.23;;;4.73;;
33074;SDS011;19433;51.292;6.868;2023-06-14T03:18:08;5.00;;;4.53;;
33074;SDS011;19433;51.292;6.868;2023-06-14T03:20:34;5.43;;;5.03;;
33074;SDS011;19433;51.292;6.868;2023-06-14T03:23:03;4.90;;;4.50;;
33074;SDS011;19433;51.292;6.868;2023-06-14T03:25:31;4.97;;;4.57;;
33074;SDS011;19433;51.292;6.868;2023-06-14T03:27:59;5.10;;;4.60;;
33074;SDS011;19433;51.292;6.868;2023-06-14T03:30:25;4.80;;;4.40;;
33074;SDS011;19433;51.292;6.868;2023-06-14T03:32:50;5.87;;;4.80;;
33074;SDS011;19433;51.292;6.868;2023-06-14T03:35:20;4.97;;;4.53;;
33074;SDS011;19433;51.292;6.868;2023-06-14T03:37:46;8.10;;;4.77;;
33074;SDS011;19433;51.292;6.868;2023-06-14T03:40:12;4.83;;;4.43;;
33074;SDS011;19433;51.292;6.868;2023-06-14T03:42:40;5.30;;;4.40;;
33074;SDS011;19433;51.292;6.868;2023-06-14T03:45:05;4.40;;;4.00;;
33074;SDS011;19433;51.292;6.868;2023-06-14T03:47:32;5.00;;;4.60;;
33074;SDS011;19433;51.292;6.868;2023-06-14T03:49:57;4.17;;;3.83;;
33074;SDS011;19433;51.292;6.868;2023-06-14T03:52:22;5.10;;;4.70;;
33074;SDS011;19433;51.292;6.868;2023-06-14T03:54:48;4.20;;;3.90;;
33074;SDS011;19433;51.292;6.868;2023-06-14T03:57:14;5.10;;;4.10;;
33074;SDS011;19433;51.292;6.868;2023-06-14T03:59:40;5.13;;;4.73;;
33074;SDS011;19433;51.292;6.868;2023-06-14T04:02:06;4.47;;;4.17;;
33074;SDS011;19433;51.292;6.868;2023-06-14T04:04:32;5.00;;;4.60;;
33074;SDS011;19433;51.292;6.868;2023-06-14T04:06:57;4.50;;;4.10;;
33074;SDS011;19433;51.292;6.868;2023-06-14T04:09:25;4.20;;;3.80;;
33074;SDS011;19433;51.292;6.868;2023-06-14T04:11:54;5.00;;;4.67;;
33074;SDS011;19433;51.292;6.868;2023-06-14T04:14:20;8.13;;;4.40;;
33074;SDS011;19433;51.292;6.868;2023-06-14T04:16:46;3.90;;;3.50;;
33074;SDS011;19433;51.292;6.868;2023-06-14T04:19:12;4.57;;;4.20;;
33074;SDS011;19433;51.292;6.868;2023-06-14T04:21:37;5.10;;;4.60;;
33074;SDS011;19433;51.292;6.868;2023-06-14T04:24:03;4.77;;;4.27;;
33074;SDS011;19433;51.292;6.868;2023-06-14T04:26:28;4.40;;;4.00;;
33074;SDS011;19433;51.292;6.868;2023-06-14T04:28:54;5.23;;;4.73;;
33074;SDS011;19433;51.292;6.868;2023-06-14T04:31:21;4.40;;;4.10;;
33074;SDS011;19433;51.292;6.868;2023-06-14T04:33:49;4.40;;;4.00;;
33074;SDS011;19433;51.292;6.868;2023-06-14T04:36:17;4.77;;;4.30;;
33074;SDS011;19433;51.292;6.868;2023-06-14T04:38:44;4.97;;;4.30;;
33074;SDS011;19433;51.292;6.868;2023-06-14T04:41:11;4.10;;;3.80;;
33074;SDS011;19433;51.292;6.868;2023-06-14T04:43:36;4.33;;;3.90;;
33074;SDS011;19433;51.292;6.868;2023-06-14T04:46:03;5.43;;;3.63;;
33074;SDS011;19433;51.292;6.868;2023-06-14T04:48:30;4.13;;;3.80;;
33074;SDS011;19433;51.292;6.868;2023-06-14T04:50:57;5.40;;;4.90;;
33074;SDS011;19433;51.292;6.868;2023-06-14T04:53:22;5.03;;;4.53;;
33074;SDS011;19433;51.292;6.868;2023-06-14T04:55:48;4.90;;;4.47;;
33074;SDS011;19433;51.292;6.868;2023-06-14T04:58:13;4.53;;;4.23;;
33074;SDS011;19433;51.292;6.868;2023-06-14T05:00:39;4.53;;;3.70;;
33074;SDS011;19433;51.292;6.868;2023-06-14T05:03:04;4.43;;;4.13;;
33074;SDS011;19433;51.292;6.868;2023-06-14T05:05:31;3.90;;;3.60;;
33074;SDS011;19433;51.292;6.868;2023-06-14T05:07:56;3.67;;;3.47;;
33074;SDS011;19433;51.292;6.868;2023-06-14T05:10:22;5.10;;;3.80;;
33074;SDS011;19433;51.292;6.868;2023-06-14T05:12:47;3.87;;;3.57;;
33074;SDS011;19433;51.292;6.868;2023-06-14T05:15:14;5.90;;;3.60;;
33074;SDS011;19433;51.292;6.868;2023-06-14T05:17:39;5.07;;;3.97;;
33074;SDS011;19433;51.292;6.868;2023-06-14T05:20:05;4.23;;;3.83;;
33074;SDS011;19433;51.292;6.868;2023-06-14T05:22:32;4.10;;;3.70;;
33074;SDS011;19433;51.292;6.868;2023-06-14T05:24:57;7.47;;;3.40;;
33074;SDS011;19433;51.292;6.868;2023-06-14T05:27:23;3.70;;;3.40;;
33074;SDS011;19433;51.292;6.868;2023-06-14T05:29:49;4.30;;;3.17;;
33074;SDS011;19433;51.292;6.868;2023-06-14T05:32:15;7.70;;;3.67;;
33074;SDS011;19433;51.292;6.868;2023-06-14T05:34:40;4.83;;;4.43;;
33074;SDS011;19433;51.292;6.868;2023-06-14T05:37:06;10.23;;;4.00;;
33074;SDS011;19433;51.292;6.868;2023-06-14T05:39:31;4.27;;;3.37;;
33074;SDS011;19433;51.292;6.868;2023-06-14T05:41:56;6.20;;;3.63;;
33074;SDS011;19433;51.292;6.868;2023-06-14T05:44:21;4.27;;;3.40;;
33074;SDS011;19433;51.292;6.868;2023-06-14T05:46:47;5.73;;;3.30;;
33074;SDS011;19433;51.292;6.868;2023-06-14T05:49:12;3.13;;;2.93;;
33074;SDS011;19433;51.292;6.868;2023-06-14T05:51:37;3.70;;;3.40;;
33074;SDS011;19433;51.292;6.868;2023-06-14T05:54:03;3.67;;;3.27;;
33074;SDS011;19433;51.292;6.868;2023-06-14T05:56:28;3.77;;;3.37;;
33074;SDS011;19433;51.292;6.868;2023-06-14T05:58:53;3.10;;;2.90;;
33074;SDS011;19433;51.292;6.868;2023-06-14T06:01:19;3.23;;;2.93;;
33074;SDS011;19433;51.292;6.868;2023-06-14T06:03:44;2.87;;;2.67;;
33074;SDS011;19433;51.292;6.868;2023-06-14T06:06:10;3.37;;;3.00;;
33074;SDS011;19433;51.292;6.868;2023-06-14T06:08:36;6.93;;;3.10;;
33074;SDS011;19433;51.292;6.868;2023-06-14T06:11:02;2.83;;;2.63;;
33074;SDS011;19433;51.292;6.868;2023-06-14T06:13:27;2.63;;;2.43;;
33074;SDS011;19433;51.292;6.868;2023-06-14T06:15:52;2.87;;;2.63;;
33074;SDS011;19433;51.292;6.868;2023-06-14T06:18:18;3.00;;;2.70;;
33074;SDS011;19433;51.292;6.868;2023-06-14T06:20:43;2.97;;;2.77;;
33074;SDS011;19433;51.292;6.868;2023-06-14T06:23:09;2.53;;;2.43;;
33074;SDS011;19433;51.292;6.868;2023-06-14T06:25:34;2.73;;;2.53;;
33074;SDS011;19433;51.292;6.868;2023-06-14T06:28:00;2.90;;;2.43;;
33074;SDS011;19433;51.292;6.868;2023-06-14T06:30:25;3.47;;;2.47;;
33074;SDS011;19433;51.292;6.868;2023-06-14T06:32:51;2.97;;;2.67;;
33074;SDS011;19433;51.292;6.868;2023-06-14T06:35:16;2.53;;;2.33;;
33074;SDS011;19433;51.292;6.868;2023-06-14T06:37:42;2.53;;;2.03;;
33074;SDS011;19433;51.292;6.868;2023-06-14T06:40:08;2.70;;;2.43;;
33074;SDS011;19433;51.292;6.868;2023-06-14T06:42:34;3.40;;;2.07;;
33074;SDS011;19433;51.292;6.868;2023-06-14T06:45:00;3.00;;;2.20;;
33074;SDS011;19433;51.292;6.868;2023-06-14T06:47:25;2.97;;;2.40;;
33074;SDS011;19433;51.292;6.868;2023-06-14T06:49:51;2.90;;;2.33;;
33074;SDS011;19433;51.292;6.868;2023-06-14T06:52:16;3.27;;;2.00;;
33074;SDS011;19433;51.292;6.868;2023-06-14T06:54:41;5.03;;;2.17;;
33074;SDS011;19433;51.292;6.868;2023-06-14T06:57:07;2.40;;;2.20;;
33074;SDS011;19433;51.292;6.868;2023-06-14T06:59:32;1.97;;;1.87;;
33074;SDS011;19433;51.292;6.868;2023-06-14T07:01:58;2.10;;;2.00;;
33074;SDS011;19433;51.292;6.868;2023-06-14T07:04:24;2.30;;;2.10;;
33074;SDS011;19433;51.292;6.868;2023-06-14T07:06:49;2.03;;;1.80;;
33074;SDS011;19433;51.292;6.868;2023-06-14T07:09:14;2.20;;;1.57;;
33074;SDS011;19433;51.292;6.868;2023-06-14T07:11:41;1.50;;;1.40;;
33074;SDS011;19433;51.292;6.868;2023-06-14T07:14:08;2.17;;;1.97;;
33074;SDS011;19433;51.292;6.868;2023-06-14T07:16:33;6.63;;;2.00;;
33074;SDS011;19433;51.292;6.868;2023-06-14T07:18:59;1.90;;;1.80;;
33074;SDS011;19433;51.292;6.868;2023-06-14T07:21:25;1.80;;;1.70;;
33074;SDS011;19433;51.292;6.868;2023-06-14T07:23:51;1.60;;;1.50;;
33074;SDS011;19433;51.292;6.868;2023-06-14T07:26:17;1.50;;;1.40;;
33074;SDS011;19433;51.292;6.868;2023-06-14T07:28:43;1.47;;;1.37;;
33074;SDS011;19433;51.292;6.868;2023-06-14T07:31:09;1.50;;;1.33;;
33074;SDS011;19433;51.292;6.868;2023-06-14T07:33:35;1.70;;;1.60;;
33074;SDS011;19433;51.292;6.868;2023-06-14T07:36:00;1.50;;;1.40;;
33074;SDS011;19433;51.292;6.868;2023-06-14T07:38:26;2.13;;;2.03;;
33074;SDS011;19433;51.292;6.868;2023-06-14T07:40:51;1.50;;;1.40;;
33074;SDS011;19433;51.292;6.868;2023-06-14T07:43:17;1.80;;;1.37;;
33074;SDS011;19433;51.292;6.868;2023-06-14T07:45:42;1.50;;;1.40;;
33074;SDS011;19433;51.292;6.868;2023-06-14T07:48:07;1.60;;;1.50;;
33074;SDS011;19433;51.292;6.868;2023-06-14T07:50:34;1.57;;;1.47;;
33074;SDS011;19433;51.292;6.868;2023-06-14T07:52:59;1.50;;;1.40;;
33074;SDS011;19433;51.292;6.868;2023-06-14T07:55:24;1.10;;;1.10;;
33074;SDS011;19433;51.292;6.868;2023-06-14T07:57:50;1.17;;;1.17;;
33074;SDS011;19433;51.292;6.868;2023-06-14T08:00:15;2.10;;;1.30;;
33074;SDS011;19433;51.292;6.868;2023-06-14T08:02:43;2.10;;;1.90;;
33074;SDS011;19433;51.292;6.868;2023-06-14T08:05:10;1.40;;;1.30;;
33074;SDS011;19433;51.292;6.868;2023-06-14T08:07:39;1.40;;;1.30;;
33074;SDS011;19433;51.292;6.868;2023-06-14T08:10:05;5.00;;;2.20;;
33074;SDS011;19433;51.292;6.868;2023-06-14T08:12:31;1.27;;;1.17;;
33074;SDS011;19433;51.292;6.868;2023-06-14T08:14:57;1.83;;;1.30;;
33074;SDS011;19433;51.292;6.868;2023-06-14T08:17:23;2.17;;;1.53;;
33074;SDS011;19433;51.292;6.868;2023-06-14T08:19:49;1.50;;;1.40;;
33074;SDS011;19433;51.292;6.868;2023-06-14T08:22:15;1.57;;;1.20;;
33074;SDS011;19433;51.292;6.868;2023-06-14T08:24:41;1.50;;;1.40;;
33074;SDS011;19433;51.292;6.868;2023-06-14T08:27:07;1.70;;;1.60;;
33074;SDS011;19433;51.292;6.868;2023-06-14T08:29:32;1.60;;;1.50;;
33074;SDS011;19433;51.292;6.868;2023-06-14T08:31:58;1.30;;;1.20;;
33074;SDS011;19433;51.292;6.868;2023-06-14T08:34:23;1.60;;;1.50;;
33074;SDS011;19433;51.292;6.868;2023-06-14T08:36:52;2.53;;;1.70;;
33074;SDS011;19433;51.292;6.868;2023-06-14T08:39:19;1.50;;;1.40;;
33074;SDS011;19433;51.292;6.868;2023-06-14T08:41:45;2.10;;;1.90;;
33074;SDS011;19433;51.292;6.868;2023-06-14T08:44:12;1.53;;;1.43;;
33074;SDS011;19433;51.292;6.868;2023-06-14T08:46:37;1.07;;;1.07;;
33074;SDS011;19433;51.292;6.868;2023-06-14T08:49:03;1.40;;;1.30;;
33074;SDS011;19433;51.292;6.868;2023-06-14T08:51:31;1.53;;;1.43;;
33074;SDS011;19433;51.292;6.868;2023-06-14T08:53:59;1.67;;;1.33;;
33074;SDS011;19433;51.292;6.868;2023-06-14T08:56:26;1.53;;;1.20;;
33074;SDS011;19433;51.292;6.868;2023-06-14T08:58:53;1.57;;;1.47;;
33074;SDS011;19433;51.292;6.868;2023-06-14T09:01:19;1.40;;;1.30;;
33074;SDS011;19433;51.292;6.868;2023-06-14T09:03:46;1.33;;;1.23;;
33074;SDS011;19433;51.292;6.868;2023-06-14T09:06:13;3.33;;;1.33;;
33074;SDS011;19433;51.292;6.868;2023-06-14T09:08:40;1.03;;;0.93;;
33074;SDS011;19433;51.292;6.868;2023-06-14T09:11:14;1.63;;;1.53;;
33074;SDS011;19433;51.292;6.868;2023-06-14T09:13:40;1.40;;;1.30;;
33074;SDS011;19433;51.292;6.868;2023-06-14T09:16:06;1.87;;;1.50;;
33074;SDS011;19433;51.292;6.868;2023-06-14T09:18:40;1.27;;;1.17;;
33074;SDS011;19433;51.292;6.868;2023-06-14T09:21:09;1.63;;;1.53;;
33074;SDS011;19433;51.292;6.868;2023-06-14T09:23:41;1.70;;;1.03;;
33074;SDS011;19433;51.292;6.868;2023-06-14T09:26:12;2.50;;;1.30;;
33074;SDS011;19433;51.292;6.868;2023-06-14T09:28:41;1.47;;;1.30;;
33074;SDS011;19433;51.292;6.868;2023-06-14T09:31:08;1.13;;;1.13;;
33074;SDS011;19433;51.292;6.868;2023-06-14T09:33:36;1.77;;;1.67;;
33074;SDS011;19433;51.292;6.868;2023-06-14T09:36:01;1.40;;;1.30;;
33074;SDS011;19433;51.292;6.868;2023-06-14T09:38:26;1.50;;;1.40;;
33074;SDS011;19433;51.292;6.868;2023-06-14T09:40:52;1.73;;;1.63;;
33074;SDS011;19433;51.292;6.868;2023-06-14T09:43:19;1.07;;;1.07;;
33074;SDS011;19433;51.292;6.868;2023-06-14T09:45:46;1.80;;;1.70;;
33074;SDS011;19433;51.292;6.868;2023-06-14T09:48:13;1.20;;;1.10;;
33074;SDS011;19433;51.292;6.868;2023-06-14T09:50:42;1.30;;;1.30;;
33074;SDS011;19433;51.292;6.868;2023-06-14T09:53:14;3.10;;;1.67;;
33074;SDS011;19433;51.292;6.868;2023-06-14T09:55:42;1.20;;;1.20;;
33074;SDS011;19433;51.292;6.868;2023-06-14T09:58:08;1.63;;;1.53;;
33074;SDS011;19433;51.292;6.868;2023-06-14T10:00:35;1.57;;;1.47;;
33074;SDS011;19433;51.292;6.868;2023-06-14T10:03:12;1.20;;;1.20;;
33074;SDS011;19433;51.292;6.868;2023-06-14T10:05:39;2.10;;;1.30;;
33074;SDS011;19433;51.292;6.868;2023-06-14T10:08:08;1.30;;;1.30;;
33074;SDS011;19433;51.292;6.868;2023-06-14T10:10:35;1.33;;;1.23;;
33074;SDS011;19433;51.292;6.868;2023-06-14T10:13:03;1.50;;;1.40;;
33074;SDS011;19433;51.292;6.868;2023-06-14T10:18:16;1.50;;;1.40;;
33074;SDS011;19433;51.292;6.868;2023-06-14T10:23:33;1.10;;;1.10;;
33074;SDS011;19433;51.292;6.868;2023-06-14T10:26:02;1.60;;;1.37;;
33074;SDS011;19433;51.292;6.868;2023-06-14T10:28:27;1.17;;;0.97;;
33074;SDS011;19433;51.292;6.868;2023-06-14T10:31:11;1.63;;;1.30;;
33074;SDS011;19433;51.292;6.868;2023-06-14T10:33:39;1.03;;;0.90;;
33074;SDS011;19433;51.292;6.868;2023-06-14T10:36:30;1.03;;;1.03;;
33074;SDS011;19433;51.292;6.868;2023-06-14T10:39:03;2.17;;;1.57;;
33074;SDS011;19433;51.292;6.868;2023-06-14T10:41:29;1.37;;;1.20;;
33074;SDS011;19433;51.292;6.868;2023-06-14T10:46:47;1.40;;;1.30;;
33074;SDS011;19433;51.292;6.868;2023-06-14T10:50:06;1.23;;;1.13;;
33074;SDS011;19433;51.292;6.868;2023-06-14T10:52:32;1.50;;;1.40;;
33074;SDS011;19433;51.292;6.868;2023-06-14T10:57:30;1.50;;;1.40;;
33074;SDS011;19433;51.292;6.868;2023-06-14T10:59:57;1.67;;;1.57;;
33074;SDS011;19433;51.292;6.868;2023-06-14T11:02:33;1.80;;;1.40;;
33074;SDS011;19433;51.292;6.868;2023-06-14T11:05:08;1.20;;;1.13;;
33074;SDS011;19433;51.292;6.868;2023-06-14T11:10:38;1.53;;;1.10;;
33074;SDS011;19433;51.292;6.868;2023-06-14T11:13:08;2.30;;;1.27;;
33074;SDS011;19433;51.292;6.868;2023-06-14T11:15:35;1.57;;;1.47;;
33074;SDS011;19433;51.292;6.868;2023-06-14T11:18:05;2.67;;;1.20;;
33074;SDS011;19433;51.292;6.868;2023-06-14T11:20:32;2.27;;;1.17;;
33074;SDS011;19433;51.292;6.868;2023-06-14T11:23:00;1.10;;;1.10;;
33074;SDS011;19433;51.292;6.868;2023-06-14T11:25:26;1.40;;;1.30;;
33074;SDS011;19433;51.292;6.868;2023-06-14T11:27:57;1.47;;;1.23;;
33074;SDS011;19433;51.292;6.868;2023-06-14T11:30:24;1.20;;;1.10;;
33074;SDS011;19433;51.292;6.868;2023-06-14T11:32:53;1.40;;;1.10;;
33074;SDS011;19433;51.292;6.868;2023-06-14T11:35:21;1.40;;;1.13;;
33074;SDS011;19433;51.292;6.868;2023-06-14T11:37:54;1.73;;;1.10;;
33074;SDS011;19433;51.292;6.868;2023-06-14T11:40:22;1.03;;;1.03;;
33074;SDS011;19433;51.292;6.868;2023-06-14T11:42:48;1.37;;;1.30;;
33074;SDS011;19433;51.292;6.868;2023-06-14T11:45:14;1.50;;;1.40;;
33074;SDS011;19433;51.292;6.868;2023-06-14T11:47:39;0.80;;;0.80;;
33074;SDS011;19433;51.292;6.868;2023-06-14T11:50:05;1.07;;;0.90;;
33074;SDS011;19433;51.292;6.868;2023-06-14T11:52:33;0.90;;;0.90;;
33074;SDS011;19433;51.292;6.868;2023-06-14T11:54:59;1.47;;;1.10;;
33074;SDS011;19433;51.292;6.868;2023-06-14T11:57:24;1.07;;;0.97;;
33074;SDS011;19433;51.292;6.868;2023-06-14T11:59:50;2.23;;;1.30;;
33074;SDS011;19433;51.292;6.868;2023-06-14T12:02:17;1.00;;;1.00;;
33074;SDS011;19433;51.292;6.868;2023-06-14T12:04:43;1.00;;;1.00;;
33074;SDS011;19433;51.292;6.868;2023-06-14T12:07:10;1.00;;;1.00;;
33074;SDS011;19433;51.292;6.868;2023-06-14T12:09:42;1.00;;;1.00;;
33074;SDS011;19433;51.292;6.868;2023-06-14T12:12:28;1.40;;;1.23;;
33074;SDS011;19433;51.292;6.868;2023-06-14T12:14:55;1.47;;;1.37;;
33074;SDS011;19433;51.292;6.868;2023-06-14T12:17:23;1.90;;;1.27;;
33074;SDS011;19433;51.292;6.868;2023-06-14T12:19:49;0.87;;;0.87;;
33074;SDS011;19433;51.292;6.868;2023-06-14T12:22:15;1.20;;;1.10;;
33074;SDS011;19433;51.292;6.868;2023-06-14T12:24:44;1.20;;;1.20;;
33074;SDS011;19433;51.292;6.868;2023-06-14T12:27:11;1.83;;;1.10;;
33074;SDS011;19433;51.292;6.868;2023-06-14T12:29:41;1.30;;;1.20;;
33074;SDS011;19433;51.292;6.868;2023-06-14T12:32:10;1.07;;;1.07;;
33074;SDS011;19433;51.292;6.868;2023-06-14T12:34:36;5.53;;;1.50;;
33074;SDS011;19433;51.292;6.868;2023-06-14T12:37:02;1.17;;;1.10;;
33074;SDS011;19433;51.292;6.868;2023-06-14T12:39:29;0.90;;;0.90;;
33074;SDS011;19433;51.292;6.868;2023-06-14T12:41:56;0.80;;;0.80;;
33074;SDS011;19433;51.292;6.868;2023-06-14T12:44:22;1.00;;;1.00;;
33074;SDS011;19433;51.292;6.868;2023-06-14T12:46:47;1.33;;;1.23;;
33074;SDS011;19433;51.292;6.868;2023-06-14T12:49:12;1.70;;;1.60;;
33074;SDS011;19433;51.292;6.868;2023-06-14T12:51:38;2.43;;;1.20;;
33074;SDS011;19433;51.292;6.868;2023-06-14T12:54:04;1.03;;;1.03;;
33074;SDS011;19433;51.292;6.868;2023-06-14T12:56:34;1.60;;;1.17;;
33074;SDS011;19433;51.292;6.868;2023-06-14T12:59:00;1.47;;;1.20;;
33074;SDS011;19433;51.292;6.868;2023-06-14T13:01:25;1.17;;;1.10;;
33074;SDS011;19433;51.292;6.868;2023-06-14T13:03:50;1.50;;;1.40;;
33074;SDS011;19433;51.292;6.868;2023-06-14T13:06:20;4.13;;;1.57;;
33074;SDS011;19433;51.292;6.868;2023-06-14T13:08:46;4.13;;;2.37;;
33074;SDS011;19433;51.292;6.868;2023-06-14T13:11:11;1.17;;;1.17;;
33074;SDS011;19433;51.292;6.868;2023-06-14T13:13:37;2.00;;;1.80;;
33074;SDS011;19433;51.292;6.868;2023-06-14T13:16:02;1.13;;;1.13;;
33074;SDS011;19433;51.292;6.868;2023-06-14T13:18:27;2.30;;;1.20;;
33074;SDS011;19433;51.292;6.868;2023-06-14T13:20:53;1.47;;;1.37;;
33074;SDS011;19433;51.292;6.868;2023-06-14T13:23:18;1.13;;;1.13;;
33074;SDS011;19433;51.292;6.868;2023-06-14T13:25:43;2.03;;;1.93;;
33074;SDS011;19433;51.292;6.868;2023-06-14T13:28:09;1.30;;;1.20;;
33074;SDS011;19433;51.292;6.868;2023-06-14T13:30:34;1.80;;;1.70;;
33074;SDS011;19433;51.292;6.868;2023-06-14T13:33:00;1.27;;;1.17;;
33074;SDS011;19433;51.292;6.868;2023-06-14T13:35:26;1.63;;;1.53;;
33074;SDS011;19433;51.292;6.868;2023-06-14T13:37:52;2.30;;;1.57;;
33074;SDS011;19433;51.292;6.868;2023-06-14T13:40:17;2.00;;;1.90;;
33074;SDS011;19433;51.292;6.868;2023-06-14T13:42:43;3.10;;;2.17;;
33074;SDS011;19433;51.292;6.868;2023-06-14T13:45:10;1.70;;;1.60;;
33074;SDS011;19433;51.292;6.868;2023-06-14T13:47:36;1.60;;;1.50;;
33074;SDS011;19433;51.292;6.868;2023-06-14T13:50:02;1.57;;;1.47;;
33074;SDS011;19433;51.292;6.868;2023-06-14T13:52:28;2.03;;;1.80;;
33074;SDS011;19433;51.292;6.868;2023-06-14T13:54:53;1.90;;;1.80;;
33074;SDS011;19433;51.292;6.868;2023-06-14T13:57:19;1.90;;;1.80;;
33074;SDS011;19433;51.292;6.868;2023-06-14T13:59:44;1.63;;;1.53;;
33074;SDS011;19433;51.292;6.868;2023-06-14T14:02:10;7.03;;;3.10;;
33074;SDS011;19433;51.292;6.868;2023-06-14T14:04:36;1.47;;;1.37;;
33074;SDS011;19433;51.292;6.868;2023-06-14T14:07:03;1.80;;;1.70;;
33074;SDS011;19433;51.292;6.868;2023-06-14T14:09:29;1.40;;;1.40;;
33074;SDS011;19433;51.292;6.868;2023-06-14T14:11:55;2.10;;;2.00;;
33074;SDS011;19433;51.292;6.868;2023-06-14T14:14:20;1.30;;;1.20;;
33074;SDS011;19433;51.292;6.868;2023-06-14T14:16:46;1.80;;;1.70;;
33074;SDS011;19433;51.292;6.868;2023-06-14T14:19:11;1.77;;;1.67;;
33074;SDS011;19433;51.292;6.868;2023-06-14T14:21:36;1.50;;;1.40;;
33074;SDS011;19433;51.292;6.868;2023-06-14T14:24:02;1.70;;;1.60;;
33074;SDS011;19433;51.292;6.868;2023-06-14T14:26:28;1.70;;;1.60;;
33074;SDS011;19433;51.292;6.868;2023-06-14T14:28:54;1.70;;;1.60;;
33074;SDS011;19433;51.292;6.868;2023-06-14T14:31:19;1.70;;;1.60;;
33074;SDS011;19433;51.292;6.868;2023-06-14T14:33:44;2.07;;;1.97;;
33074;SDS011;19433;51.292;6.868;2023-06-14T14:36:10;1.80;;;1.70;;
33074;SDS011;19433;51.292;6.868;2023-06-14T14:38:35;2.10;;;1.90;;
33074;SDS011;19433;51.292;6.868;2023-06-14T14:41:00;1.90;;;1.73;;
33074;SDS011;19433;51.292;6.868;2023-06-14T14:43:26;2.07;;;1.43;;
33074;SDS011;19433;51.292;6.868;2023-06-14T14:45:51;1.93;;;1.50;;
33074;SDS011;19433;51.292;6.868;2023-06-14T14:48:17;1.70;;;1.60;;
33074;SDS011;19433;51.292;6.868;2023-06-14T14:50:43;2.00;;;1.90;;
33074;SDS011;19433;51.292;6.868;2023-06-14T14:53:08;2.50;;;1.70;;
33074;SDS011;19433;51.292;6.868;2023-06-14T14:55:33;1.50;;;1.40;;
33074;SDS011;19433;51.292;6.868;2023-06-14T14:58:01;2.40;;;1.60;;
33074;SDS011;19433;51.292;6.868;2023-06-14T15:00:27;2.10;;;2.00;;
33074;SDS011;19433;51.292;6.868;2023-06-14T15:02:52;2.20;;;1.57;;
33074;SDS011;19433;51.292;6.868;2023-06-14T15:05:18;1.87;;;1.77;;